createdAt,value
2016-08-19T00:00:20.237Z,0
2016-08-19T00:01:33.215Z,0
2016-08-19T00:02:46.387Z,0
2016-08-19T00:03:59.575Z,0
2016-08-19T00:05:12.551Z,0
2016-08-19T00:06:25.522Z,0
2016-08-19T00:07:38.505Z,0
2016-08-19T00:08:51.488Z,0
2016-08-19T00:10:04.470Z,0
2016-08-19T00:11:17.445Z,0
2016-08-19T00:12:30.422Z,0
2016-08-19T00:13:43.403Z,0
2016-08-19T00:14:56.376Z,0
2016-08-19T00:16:09.351Z,0
2016-08-19T00:17:22.337Z,0
2016-08-19T00:18:35.322Z,0
2016-08-19T00:19:48.515Z,0
2016-08-19T00:21:01.496Z,0
2016-08-19T00:22:14.466Z,0
2016-08-19T00:23:27.444Z,0
2016-08-19T00:24:40.440Z,0
2016-08-19T00:25:53.424Z,0
2016-08-19T00:27:06.402Z,0
2016-08-19T00:28:19.381Z,0
2016-08-19T00:29:32.349Z,0
2016-08-19T00:30:45.530Z,0
2016-08-19T00:31:58.511Z,0
2016-08-19T00:33:11.498Z,0
2016-08-19T00:34:24.688Z,0
2016-08-19T00:35:37.668Z,0
2016-08-19T00:36:50.636Z,0
2016-08-19T00:38:03.611Z,0
2016-08-19T00:39:16.792Z,0
2016-08-19T00:40:29.766Z,0
2016-08-19T00:41:42.747Z,0
2016-08-19T00:42:55.730Z,0
2016-08-19T00:44:08.730Z,0
2016-08-19T00:45:21.714Z,0
2016-08-19T00:46:34.698Z,0
2016-08-19T00:47:47.888Z,0
2016-08-19T00:49:01.065Z,0
2016-08-19T00:50:14.045Z,0
2016-08-19T00:51:27.025Z,0
2016-08-19T00:52:40.209Z,0
2016-08-19T00:53:53.378Z,0
2016-08-19T00:55:06.353Z,0
2016-08-19T00:56:19.337Z,0
2016-08-19T00:57:32.509Z,0
2016-08-19T00:58:45.483Z,0
2016-08-19T00:59:58.463Z,0
2016-08-19T01:01:11.441Z,0
2016-08-19T01:02:24.632Z,0
2016-08-19T01:03:37.616Z,0
2016-08-19T01:04:50.597Z,0
2016-08-19T01:06:03.575Z,0
2016-08-19T01:07:16.551Z,0
2016-08-19T01:08:29.539Z,0
2016-08-19T01:09:42.515Z,0
2016-08-19T01:10:55.543Z,0
2016-08-19T01:12:08.526Z,0
2016-08-19T01:13:21.519Z,0
2016-08-19T01:14:34.509Z,0
2016-08-19T01:15:47.500Z,0
2016-08-19T01:17:00.488Z,0
2016-08-19T01:18:13.659Z,0
2016-08-19T01:19:26.644Z,0
2016-08-19T01:20:39.838Z,0
2016-08-19T01:21:52.815Z,0
2016-08-19T01:23:05.993Z,0
2016-08-19T01:24:18.974Z,0
2016-08-19T01:25:31.956Z,0
2016-08-19T01:26:44.928Z,0
2016-08-19T01:27:58.097Z,0
2016-08-19T01:29:11.093Z,0
2016-08-19T01:30:24.082Z,0
2016-08-19T01:31:37.068Z,0
2016-08-19T01:32:50.039Z,0
2016-08-19T01:34:03.038Z,0
2016-08-19T01:35:16.015Z,0
2016-08-19T01:36:29.159Z,0
2016-08-19T01:37:42.140Z,0
2016-08-19T01:38:55.123Z,0
2016-08-19T01:40:08.092Z,0
2016-08-19T01:41:21.081Z,0
2016-08-19T01:42:34.263Z,0
2016-08-19T01:43:47.441Z,0
2016-08-19T01:45:00.424Z,0
2016-08-19T01:46:13.393Z,0
2016-08-19T01:47:26.457Z,0
2016-08-19T01:48:39.449Z,0
2016-08-19T01:49:52.435Z,0
2016-08-19T01:51:05.416Z,0
2016-08-19T01:52:18.387Z,0
2016-08-19T01:53:31.363Z,0
2016-08-19T01:54:44.345Z,0
2016-08-19T01:55:57.532Z,0
2016-08-19T01:57:10.698Z,0
2016-08-19T01:58:23.895Z,0
2016-08-19T01:59:36.873Z,0
2016-08-19T02:00:49.861Z,0
2016-08-19T02:02:02.839Z,0
2016-08-19T02:03:15.815Z,0
2016-08-19T02:04:29.006Z,0
2016-08-19T02:05:41.990Z,0
2016-08-19T02:06:55.162Z,0
2016-08-19T02:08:08.157Z,0
2016-08-19T02:09:21.187Z,0
2016-08-19T02:10:34.170Z,0
2016-08-19T02:11:47.147Z,0
2016-08-19T02:13:00.131Z,0
2016-08-19T02:14:13.108Z,0
2016-08-19T02:15:26.089Z,0
2016-08-19T02:16:39.068Z,0
2016-08-19T02:17:52.046Z,0
2016-08-19T02:19:05.019Z,0
2016-08-19T02:20:17.995Z,0
2016-08-19T02:21:30.972Z,0
2016-08-19T02:22:43.961Z,0
2016-08-19T02:23:57.130Z,0
2016-08-19T02:25:10.101Z,0
2016-08-19T02:26:23.086Z,0
2016-08-19T02:27:36.062Z,0
2016-08-19T02:28:49.038Z,0
2016-08-19T02:30:02.014Z,0
2016-08-19T02:31:15.208Z,0
2016-08-19T02:32:28.408Z,0
2016-08-19T02:33:41.382Z,0
2016-08-19T02:34:54.360Z,0
2016-08-19T02:36:07.534Z,0
2016-08-19T02:37:20.529Z,0
2016-08-19T02:38:33.524Z,0
2016-08-19T02:39:46.504Z,0
2016-08-19T02:40:59.475Z,0
2016-08-19T02:42:12.449Z,0
2016-08-19T02:43:25.425Z,0
2016-08-19T02:44:38.403Z,0
2016-08-19T02:45:51.391Z,0
2016-08-19T02:47:04.382Z,0
2016-08-19T02:48:17.358Z,0
2016-08-19T02:49:30.359Z,0
2016-08-19T02:50:43.529Z,0
2016-08-19T02:51:56.505Z,0
2016-08-19T02:53:09.688Z,0
2016-08-19T02:54:22.669Z,0
2016-08-19T02:55:35.643Z,0
2016-08-19T02:56:48.625Z,0
2016-08-19T02:58:01.605Z,0
2016-08-19T02:59:14.576Z,0
2016-08-19T03:00:27.552Z,0
2016-08-19T03:01:40.727Z,0
2016-08-19T03:02:53.701Z,0
2016-08-19T03:04:06.678Z,0
2016-08-19T03:05:19.656Z,0
2016-08-19T03:06:32.631Z,0
2016-08-19T03:07:45.617Z,0
2016-08-19T03:08:58.606Z,0
2016-08-19T03:10:11.581Z,0
2016-08-19T03:11:24.603Z,0
2016-08-19T03:12:37.579Z,0
2016-08-19T03:13:50.559Z,0
2016-08-19T03:15:03.543Z,0
2016-08-19T03:16:16.509Z,0
2016-08-19T03:17:29.479Z,0
2016-08-19T03:18:42.680Z,0
2016-08-19T03:19:55.656Z,0
2016-08-19T03:21:08.625Z,0
2016-08-19T03:22:21.607Z,0
2016-08-19T03:23:34.589Z,0
2016-08-19T03:24:47.566Z,0
2016-08-19T03:26:00.537Z,0
2016-08-19T03:27:13.517Z,0
2016-08-19T03:28:26.700Z,0
2016-08-19T03:29:39.690Z,0
2016-08-19T03:30:52.868Z,0
2016-08-19T03:32:05.840Z,0
2016-08-19T03:33:18.829Z,0
2016-08-19T03:34:31.810Z,0
2016-08-19T03:35:44.788Z,0
2016-08-19T03:36:57.763Z,0
2016-08-19T03:38:10.743Z,0
2016-08-19T03:39:23.723Z,0
2016-08-19T03:40:36.697Z,0
2016-08-19T03:41:49.673Z,0
2016-08-19T03:43:02.647Z,0
2016-08-19T03:44:15.630Z,0
2016-08-19T03:45:28.605Z,0
2016-08-19T03:46:41.577Z,0
2016-08-19T03:47:54.552Z,0
2016-08-19T03:49:07.539Z,0
2016-08-19T03:50:20.520Z,0
2016-08-19T03:51:33.490Z,0
2016-08-19T03:52:46.464Z,0
2016-08-19T03:53:59.444Z,0
2016-08-19T03:55:12.419Z,0
2016-08-19T03:56:25.390Z,0
2016-08-19T03:57:38.617Z,0
2016-08-19T03:58:51.602Z,0
2016-08-19T04:00:04.587Z,0
2016-08-19T04:01:17.555Z,0
2016-08-19T04:02:30.529Z,0
2016-08-19T04:03:43.505Z,0
2016-08-19T04:04:56.473Z,0
2016-08-19T04:06:09.443Z,0
2016-08-19T04:07:22.432Z,0
2016-08-19T04:08:35.408Z,0
2016-08-19T04:09:48.584Z,0
2016-08-19T04:11:01.780Z,0
2016-08-19T04:12:14.765Z,0
2016-08-19T04:13:27.751Z,0
2016-08-19T04:14:40.733Z,5
2016-08-19T04:15:53.703Z,5
2016-08-19T04:17:06.678Z,5
2016-08-19T04:18:19.856Z,5
2016-08-19T04:19:33.012Z,5
2016-08-19T04:20:45.991Z,5
2016-08-19T04:21:58.981Z,5
2016-08-19T04:23:12.166Z,10
2016-08-19T04:24:25.134Z,10
2016-08-19T04:25:38.109Z,10
2016-08-19T04:26:51.095Z,10
2016-08-19T04:28:04.075Z,10
2016-08-19T04:29:17.056Z,15
2016-08-19T04:30:30.034Z,15
2016-08-19T04:31:43.005Z,15
2016-08-19T04:32:55.973Z,15
2016-08-19T04:34:08.951Z,20
2016-08-19T04:35:21.928Z,20
2016-08-19T04:36:34.902Z,20
2016-08-19T04:37:47.885Z,20
2016-08-19T04:39:00.862Z,25
2016-08-19T04:40:13.834Z,25
2016-08-19T04:41:26.811Z,25
2016-08-19T04:42:40.001Z,30
2016-08-19T04:43:53.171Z,30
2016-08-19T04:45:06.144Z,30
2016-08-19T04:46:19.329Z,35
2016-08-19T04:47:32.314Z,35
2016-08-19T04:48:45.310Z,35
2016-08-19T04:49:58.281Z,40
2016-08-19T04:51:11.260Z,40
2016-08-19T04:52:24.430Z,45
2016-08-19T04:53:37.613Z,45
2016-08-19T04:54:50.790Z,45
2016-08-19T04:56:03.768Z,50
2016-08-19T04:57:16.942Z,50
2016-08-19T04:58:29.926Z,55
2016-08-19T04:59:42.904Z,55
2016-08-19T05:00:55.890Z,55
2016-08-19T05:02:08.875Z,65
2016-08-19T05:03:21.878Z,70
2016-08-19T05:04:34.847Z,60
2016-08-19T05:05:47.833Z,60
2016-08-19T05:07:00.999Z,65
2016-08-19T05:08:13.982Z,65
2016-08-19T05:09:27.162Z,65
2016-08-19T05:10:40.164Z,70
2016-08-19T05:11:53.141Z,80
2016-08-19T05:13:06.322Z,75
2016-08-19T05:14:19.293Z,75
2016-08-19T05:15:32.271Z,75
2016-08-19T05:16:45.254Z,85
2016-08-19T05:17:58.248Z,85
2016-08-19T05:19:11.423Z,80
2016-08-19T05:20:24.603Z,85
2016-08-19T05:21:37.577Z,85
2016-08-19T05:22:50.558Z,85
2016-08-19T05:24:03.532Z,85
2016-08-19T05:25:16.506Z,90
2016-08-19T05:26:29.688Z,90
2016-08-19T05:27:42.670Z,90
2016-08-19T05:28:55.853Z,95
2016-08-19T05:30:08.825Z,100
2016-08-19T05:31:21.803Z,105
2016-08-19T05:32:34.775Z,100
2016-08-19T05:33:47.991Z,100
2016-08-19T05:35:00.967Z,105
2016-08-19T05:36:13.948Z,115
2016-08-19T05:37:27.128Z,105
2016-08-19T05:38:40.103Z,105
2016-08-19T05:39:53.078Z,110
2016-08-19T05:41:06.056Z,110
2016-08-19T05:42:19.043Z,110
2016-08-19T05:43:32.018Z,110
2016-08-19T05:44:44.990Z,115
2016-08-19T05:45:57.971Z,115
2016-08-19T05:47:11.158Z,115
2016-08-19T05:48:24.138Z,120
2016-08-19T05:49:37.311Z,120
2016-08-19T05:50:50.289Z,120
2016-08-19T05:52:03.269Z,120
2016-08-19T05:53:16.252Z,125
2016-08-19T05:54:29.229Z,125
2016-08-19T05:55:42.205Z,125
2016-08-19T05:56:55.188Z,130
2016-08-19T05:58:08.170Z,130
2016-08-19T05:59:21.141Z,130
2016-08-19T06:00:34.142Z,135
2016-08-19T06:01:47.112Z,135
2016-08-19T06:03:00.090Z,135
2016-08-19T06:04:13.067Z,140
2016-08-19T06:05:26.048Z,140
2016-08-19T06:06:39.018Z,140
2016-08-19T06:07:51.995Z,145
2016-08-19T06:09:04.971Z,145
2016-08-19T06:10:17.947Z,145
2016-08-19T06:11:30.974Z,155
2016-08-19T06:12:43.938Z,175
2016-08-19T06:13:56.900Z,155
2016-08-19T06:15:09.884Z,150
2016-08-19T06:16:22.860Z,150
2016-08-19T06:17:35.828Z,150
2016-08-19T06:18:48.807Z,155
2016-08-19T06:20:01.790Z,155
2016-08-19T06:21:14.754Z,155
2016-08-19T06:22:27.729Z,165
2016-08-19T06:23:40.702Z,170
2016-08-19T06:24:53.677Z,165
2016-08-19T06:26:06.667Z,195
2016-08-19T06:27:19.839Z,200
2016-08-19T06:28:32.832Z,195
2016-08-19T06:29:45.820Z,180
2016-08-19T06:30:58.999Z,185
2016-08-19T06:32:12.373Z,205
2016-08-19T06:33:25.352Z,225
2016-08-19T06:34:38.347Z,275
2016-08-19T06:35:51.325Z,355
2016-08-19T06:37:04.307Z,450
2016-08-19T06:38:17.290Z,630
2016-08-19T06:39:30.274Z,1180
2016-08-19T06:40:43.245Z,1380
2016-08-19T06:41:56.236Z,1450
2016-08-19T06:43:09.220Z,1480
2016-08-19T06:44:22.405Z,1445
2016-08-19T06:45:35.390Z,1465
2016-08-19T06:46:48.378Z,1505
2016-08-19T06:48:01.369Z,1565
2016-08-19T06:49:14.358Z,1555
2016-08-19T06:50:27.338Z,1540
2016-08-19T06:51:40.334Z,1605
2016-08-19T06:52:53.316Z,1615
2016-08-19T06:54:06.511Z,1610
2016-08-19T06:55:19.494Z,1605
2016-08-19T06:56:32.489Z,1715
2016-08-19T06:57:45.482Z,1720
2016-08-19T06:58:58.475Z,1655
2016-08-19T07:00:11.463Z,1660
2016-08-19T07:01:24.465Z,1655
2016-08-19T07:02:37.457Z,1695
2016-08-19T07:03:50.449Z,1715
2016-08-19T07:05:03.443Z,1710
2016-08-19T07:06:16.439Z,1745
2016-08-19T07:07:29.640Z,1760
2016-08-19T07:08:42.838Z,1650
2016-08-19T07:09:55.833Z,1800
2016-08-19T07:11:08.817Z,1780
2016-08-19T07:12:22.021Z,1805
2016-08-19T07:13:35.214Z,1795
2016-08-19T07:14:48.203Z,1745
2016-08-19T07:16:01.200Z,1750
2016-08-19T07:17:14.398Z,1865
2016-08-19T07:18:27.386Z,1860
2016-08-19T07:19:40.378Z,1855
2016-08-19T07:20:53.369Z,1720
2016-08-19T07:22:06.367Z,1700
2016-08-19T07:23:19.375Z,1820
2016-08-19T07:24:32.376Z,1810
2016-08-19T07:25:45.381Z,1785
2016-08-19T07:26:58.386Z,1790
2016-08-19T07:28:11.383Z,1785
2016-08-19T07:29:24.382Z,1925
2016-08-19T07:30:37.597Z,1830
2016-08-19T07:31:50.598Z,1815
2016-08-19T07:33:03.603Z,1815
2016-08-19T07:34:16.609Z,1970
2016-08-19T07:35:29.610Z,1890
2016-08-19T07:36:42.636Z,1890
2016-08-19T07:37:55.645Z,2000
2016-08-19T07:39:08.639Z,1950
2016-08-19T07:40:21.633Z,2025
2016-08-19T07:41:34.633Z,1985
2016-08-19T07:42:47.641Z,1920
2016-08-19T07:44:00.658Z,1905
2016-08-19T07:45:13.661Z,1995
2016-08-19T07:46:26.673Z,1910
2016-08-19T07:47:39.673Z,1970
2016-08-19T07:48:52.677Z,2080
2016-08-19T07:50:05.681Z,1905
2016-08-19T07:51:18.887Z,1850
2016-08-19T07:52:31.890Z,1995
2016-08-19T07:53:44.904Z,1920
2016-08-19T07:54:57.907Z,2040
2016-08-19T07:56:10.912Z,1955
2016-08-19T07:57:23.924Z,1950
2016-08-19T07:58:37.131Z,1940
2016-08-19T07:59:50.129Z,1950
2016-08-19T08:01:03.335Z,1935
2016-08-19T08:02:16.544Z,1970
2016-08-19T08:03:29.550Z,1950
2016-08-19T08:04:42.550Z,1975
2016-08-19T08:05:55.564Z,2070
2016-08-19T08:07:08.558Z,1950
2016-08-19T08:08:21.583Z,1975
2016-08-19T08:09:34.576Z,2065
2016-08-19T08:10:47.583Z,1940
2016-08-19T08:12:00.644Z,1960
2016-08-19T08:13:13.650Z,2015
2016-08-19T08:14:26.648Z,2000
2016-08-19T08:15:39.662Z,1945
2016-08-19T08:16:52.676Z,1865
2016-08-19T08:18:05.700Z,1915
2016-08-19T08:19:18.706Z,2085
2016-08-19T08:20:31.717Z,2065
2016-08-19T08:21:44.716Z,2090
2016-08-19T08:22:57.731Z,1990
2016-08-19T08:24:10.742Z,1995
2016-08-19T08:25:23.747Z,2055
2016-08-19T08:26:36.750Z,2080
2016-08-19T08:27:49.755Z,2060
2016-08-19T08:29:03.165Z,2050
2016-08-19T08:30:16.375Z,2100
2016-08-19T08:31:29.796Z,2010
2016-08-19T08:32:42.799Z,2010
2016-08-19T08:33:55.804Z,1990
2016-08-19T08:35:08.810Z,2030
2016-08-19T08:36:21.837Z,2040
2016-08-19T08:37:35.039Z,1985
2016-08-19T08:38:48.056Z,2000
2016-08-19T08:40:01.062Z,2045
2016-08-19T08:41:14.267Z,1965
2016-08-19T08:42:27.267Z,1950
2016-08-19T08:43:40.274Z,2010
2016-08-19T08:44:53.282Z,2165
2016-08-19T08:46:06.292Z,2230
2016-08-19T08:47:19.300Z,2165
2016-08-19T08:48:32.316Z,2120
2016-08-19T08:49:45.322Z,2125
2016-08-19T08:50:58.532Z,2125
2016-08-19T08:52:11.543Z,2150
2016-08-19T08:53:24.755Z,2075
2016-08-19T08:54:37.773Z,2095
2016-08-19T08:55:51.038Z,2070
2016-08-19T08:57:04.235Z,2020
2016-08-19T08:58:17.447Z,2050
2016-08-19T08:59:30.655Z,2125
2016-08-19T09:00:43.679Z,2155
2016-08-19T09:01:56.689Z,2050
2016-08-19T09:03:09.689Z,1900
2016-08-19T09:04:22.700Z,2095
2016-08-19T09:05:35.714Z,2045
2016-08-19T09:06:48.721Z,1995
2016-08-19T09:08:01.925Z,2140
2016-08-19T09:09:14.934Z,2115
2016-08-19T09:10:27.945Z,2060
2016-08-19T09:11:40.951Z,2030
2016-08-19T09:12:54.166Z,2055
2016-08-19T09:14:07.174Z,2065
2016-08-19T09:15:20.386Z,1970
2016-08-19T09:16:33.396Z,2005
2016-08-19T09:17:46.405Z,1940
2016-08-19T09:18:59.416Z,1910
2016-08-19T09:20:12.629Z,1925
2016-08-19T09:21:25.634Z,1960
2016-08-19T09:22:38.638Z,1800
2016-08-19T09:23:51.855Z,1875
2016-08-19T09:25:04.872Z,1765
2016-08-19T09:26:17.887Z,1885
2016-08-19T09:27:30.893Z,1930
2016-08-19T09:28:44.097Z,1960
2016-08-19T09:29:57.103Z,2040
2016-08-19T09:31:10.318Z,1990
2016-08-19T09:32:23.549Z,2035
2016-08-19T09:33:36.760Z,2100
2016-08-19T09:35:35.149Z,2040
2016-08-19T09:37:17.935Z,1975
2016-08-19T09:38:31.343Z,1935
2016-08-19T09:39:44.598Z,1940
2016-08-19T09:40:57.611Z,2080
2016-08-19T09:42:10.629Z,2135
2016-08-19T09:43:23.627Z,2035
2016-08-19T09:44:36.635Z,2050
2016-08-19T09:45:49.657Z,2060
2016-08-19T09:47:02.662Z,1975
2016-08-19T09:48:15.660Z,1895
2016-08-19T09:49:28.668Z,1875
2016-08-19T09:50:41.673Z,1865
2016-08-19T09:51:54.703Z,1835
2016-08-19T09:53:07.707Z,1675
2016-08-19T09:54:20.913Z,1705
2016-08-19T09:55:33.919Z,1795
2016-08-19T09:56:46.925Z,1840
2016-08-19T09:58:00.135Z,1940
2016-08-19T09:59:13.159Z,2045
2016-08-19T10:00:26.368Z,1915
2016-08-19T10:01:39.368Z,1915
2016-08-19T10:02:52.379Z,1915
2016-08-19T10:04:05.590Z,1975
2016-08-19T10:05:18.595Z,1965
2016-08-19T10:06:31.801Z,1930
2016-08-19T10:07:45.005Z,1935
2016-08-19T10:08:58.012Z,1945
2016-08-19T10:10:11.017Z,2025
2016-08-19T10:11:24.018Z,2045
2016-08-19T10:12:37.022Z,1970
2016-08-19T10:13:50.034Z,1965
2016-08-19T10:15:03.042Z,1940
2016-08-19T10:16:16.054Z,1955
2016-08-19T10:17:29.263Z,1890
2016-08-19T10:18:42.265Z,1830
2016-08-19T10:19:55.264Z,1890
2016-08-19T10:21:08.274Z,1880
2016-08-19T10:22:21.277Z,1890
2016-08-19T10:23:34.286Z,1900
2016-08-19T10:24:47.291Z,1900
2016-08-19T10:26:00.299Z,1925
2016-08-19T10:27:13.307Z,1925
2016-08-19T10:28:26.311Z,1990
2016-08-19T10:29:39.315Z,2035
2016-08-19T10:30:52.333Z,2025
2016-08-19T10:32:05.349Z,2030
2016-08-19T10:33:18.346Z,2220
2016-08-19T10:34:31.553Z,2460
2016-08-19T10:35:44.764Z,2625
2016-08-19T10:36:57.780Z,2650
2016-08-19T10:38:10.787Z,2045
2016-08-19T10:39:23.793Z,1260
2016-08-19T10:40:36.802Z,815
2016-08-19T10:41:50.009Z,765
2016-08-19T10:43:03.019Z,725
2016-08-19T10:44:16.047Z,720
2016-08-19T10:45:29.048Z,750
2016-08-19T10:46:42.265Z,780
2016-08-19T10:47:55.268Z,815
2016-08-19T10:49:08.272Z,855
2016-08-19T10:50:21.476Z,875
2016-08-19T10:51:34.490Z,960
2016-08-19T10:52:47.488Z,1030
2016-08-19T10:54:00.504Z,1140
2016-08-19T10:55:13.512Z,1225
2016-08-19T10:56:26.520Z,1295
2016-08-19T10:57:39.526Z,1330
2016-08-19T10:58:52.543Z,1350
2016-08-19T11:00:05.567Z,1360
2016-08-19T11:01:18.574Z,1430
2016-08-19T11:02:31.585Z,1510
2016-08-19T11:03:44.610Z,1555
2016-08-19T11:04:57.610Z,1580
2016-08-19T11:06:10.611Z,1535
2016-08-19T11:07:23.622Z,1520
2016-08-19T11:08:36.622Z,1635
2016-08-19T11:09:49.634Z,1605
2016-08-19T11:11:02.645Z,1645
2016-08-19T11:12:15.709Z,1525
2016-08-19T11:13:28.720Z,1510
2016-08-19T11:14:41.931Z,1440
2016-08-19T11:15:54.936Z,1455
2016-08-19T11:17:07.958Z,1480
2016-08-19T11:18:20.975Z,1430
2016-08-19T11:19:34.192Z,1300
2016-08-19T11:20:47.209Z,1435
2016-08-19T11:22:00.412Z,1450
2016-08-19T11:23:13.626Z,1405
2016-08-19T11:24:26.645Z,1410
2016-08-19T11:25:39.691Z,1445
2016-08-19T11:26:52.698Z,1375
2016-08-19T11:28:05.704Z,1330
2016-08-19T11:29:18.709Z,1345
2016-08-19T11:30:31.721Z,1365
2016-08-19T11:31:44.739Z,1375
2016-08-19T11:32:57.748Z,1340
2016-08-19T11:34:10.754Z,1315
2016-08-19T11:35:23.755Z,1355
2016-08-19T11:36:36.854Z,1330
2016-08-19T11:37:49.870Z,1360
2016-08-19T11:39:02.873Z,1315
2016-08-19T11:40:15.882Z,1300
2016-08-19T11:41:28.890Z,1350
2016-08-19T11:42:41.894Z,1370
2016-08-19T11:43:54.932Z,1330
2016-08-19T11:45:07.946Z,1335
2016-08-19T11:46:20.959Z,1290
2016-08-19T11:47:33.971Z,1235
2016-08-19T11:48:46.969Z,1245
2016-08-19T11:49:59.974Z,1245
2016-08-19T11:51:12.982Z,1265
2016-08-19T11:52:25.997Z,1140
2016-08-19T11:53:39.021Z,1185
2016-08-19T11:54:52.030Z,1135
2016-08-19T11:56:05.033Z,1055
2016-08-19T11:57:18.246Z,1045
2016-08-19T11:58:31.252Z,1145
2016-08-19T11:59:44.259Z,1175
2016-08-19T12:00:57.280Z,1000
2016-08-19T12:02:10.283Z,1080
2016-08-19T12:03:23.303Z,1005
2016-08-19T12:04:36.299Z,880
2016-08-19T12:05:49.510Z,880
2016-08-19T12:07:02.719Z,880
2016-08-19T12:08:15.727Z,880
2016-08-19T12:09:28.733Z,940
2016-08-19T12:10:41.734Z,810
2016-08-19T12:11:54.855Z,800
2016-08-19T12:13:07.852Z,815
2016-08-19T12:14:21.059Z,890
2016-08-19T12:15:34.067Z,860
2016-08-19T12:16:47.442Z,905
2016-08-19T12:18:00.454Z,915
2016-08-19T12:19:13.457Z,985
2016-08-19T12:20:26.460Z,1010
2016-08-19T12:21:39.474Z,1005
2016-08-19T12:22:52.470Z,975
2016-08-19T12:24:05.482Z,960
2016-08-19T12:25:18.477Z,950
2016-08-19T12:26:31.478Z,840
2016-08-19T12:27:44.485Z,735
2016-08-19T12:28:57.672Z,850
2016-08-19T12:30:10.673Z,875
2016-08-19T12:31:23.679Z,905
2016-08-19T12:32:36.701Z,870
2016-08-19T12:33:49.927Z,865
2016-08-19T12:35:03.139Z,905
2016-08-19T12:36:16.176Z,860
2016-08-19T12:37:29.185Z,865
2016-08-19T12:38:42.307Z,825
2016-08-19T12:39:55.310Z,850
2016-08-19T12:41:08.305Z,835
2016-08-19T12:42:21.306Z,810
2016-08-19T12:43:34.310Z,810
2016-08-19T12:44:47.313Z,760
2016-08-19T12:46:00.319Z,755
2016-08-19T12:47:13.320Z,700
2016-08-19T12:48:26.324Z,645
2016-08-19T12:49:39.322Z,545
2016-08-19T12:50:52.317Z,550
2016-08-19T12:52:05.317Z,590
2016-08-19T12:53:18.324Z,635
2016-08-19T12:54:31.319Z,635
2016-08-19T12:55:44.332Z,620
2016-08-19T12:56:57.334Z,630
2016-08-19T12:58:10.326Z,630
2016-08-19T12:59:23.328Z,630
2016-08-19T13:00:36.339Z,620
2016-08-19T13:01:49.339Z,600
2016-08-19T13:03:02.348Z,605
2016-08-19T13:04:15.343Z,590
2016-08-19T13:05:28.340Z,580
2016-08-19T13:06:41.347Z,570
2016-08-19T13:07:54.340Z,550
2016-08-19T13:09:07.344Z,540
2016-08-19T13:10:20.351Z,535
2016-08-19T13:11:33.370Z,525
2016-08-19T13:12:46.427Z,515
2016-08-19T13:13:59.639Z,490
2016-08-19T13:15:12.631Z,475
2016-08-19T13:16:25.630Z,455
2016-08-19T13:17:38.623Z,420
2016-08-19T13:18:51.821Z,375
2016-08-19T13:20:04.833Z,345
2016-08-19T13:21:17.832Z,370
2016-08-19T13:22:30.826Z,350
2016-08-19T13:23:43.862Z,325
2016-08-19T13:24:56.860Z,345
2016-08-19T13:26:10.049Z,360
2016-08-19T13:27:23.048Z,305
2016-08-19T13:28:36.247Z,290
2016-08-19T13:29:49.244Z,290
2016-08-19T13:31:02.462Z,290
2016-08-19T13:32:15.457Z,270
2016-08-19T13:33:28.457Z,305
2016-08-19T13:34:42.358Z,315
2016-08-19T13:35:55.464Z,305
2016-08-19T13:37:08.456Z,290
2016-08-19T13:38:21.451Z,305
2016-08-19T13:39:34.460Z,305
2016-08-19T13:40:47.459Z,295
2016-08-19T13:42:00.458Z,360
2016-08-19T13:43:13.463Z,385
2016-08-19T13:44:26.473Z,355
2016-08-19T13:45:39.488Z,345
2016-08-19T13:46:52.684Z,325
2016-08-19T13:48:05.682Z,320
2016-08-19T13:49:18.678Z,335
2016-08-19T13:50:31.688Z,330
2016-08-19T13:51:44.688Z,285
2016-08-19T13:52:57.681Z,255
2016-08-19T13:54:10.679Z,235
2016-08-19T13:55:23.877Z,250
2016-08-19T13:56:36.883Z,275
2016-08-19T13:57:49.883Z,290
2016-08-19T13:59:02.880Z,295
2016-08-19T14:00:15.871Z,300
2016-08-19T14:01:29.071Z,280
2016-08-19T14:02:42.065Z,270
2016-08-19T14:03:55.277Z,285
2016-08-19T14:05:08.268Z,295
2016-08-19T14:06:21.255Z,300
2016-08-19T14:07:34.249Z,305
2016-08-19T14:08:47.245Z,300
2016-08-19T14:10:00.247Z,305
2016-08-19T14:11:13.243Z,300
2016-08-19T14:12:26.251Z,300
2016-08-19T14:13:39.302Z,295
2016-08-19T14:14:52.495Z,255
2016-08-19T14:16:05.492Z,240
2016-08-19T14:17:18.491Z,240
2016-08-19T14:18:31.487Z,240
2016-08-19T14:19:44.647Z,235
2016-08-19T14:20:57.840Z,240
2016-08-19T14:22:10.825Z,255
2016-08-19T14:23:23.821Z,260
2016-08-19T14:24:36.825Z,260
2016-08-19T14:25:49.829Z,260
2016-08-19T14:27:02.833Z,260
2016-08-19T14:28:15.838Z,255
2016-08-19T14:29:28.861Z,255
2016-08-19T14:30:41.856Z,255
2016-08-19T14:31:54.860Z,265
2016-08-19T14:33:08.061Z,375
2016-08-19T14:34:21.061Z,385
2016-08-19T14:35:34.057Z,310
2016-08-19T14:36:47.061Z,270
2016-08-19T14:38:00.072Z,295
2016-08-19T14:39:13.067Z,300
2016-08-19T14:40:26.088Z,285
2016-08-19T14:41:39.076Z,265
2016-08-19T14:42:52.075Z,225
2016-08-19T14:44:05.278Z,215
2016-08-19T14:45:18.270Z,175
2016-08-19T14:46:31.261Z,180
2016-08-19T14:47:44.249Z,205
2016-08-19T14:48:57.445Z,200
2016-08-19T14:50:10.441Z,195
2016-08-19T14:51:23.438Z,175
2016-08-19T14:52:36.436Z,170
2016-08-19T14:53:49.427Z,180
2016-08-19T14:55:02.411Z,180
2016-08-19T14:56:15.602Z,180
2016-08-19T14:57:28.797Z,175
2016-08-19T14:58:41.792Z,180
2016-08-19T14:59:54.795Z,185
2016-08-19T15:01:07.793Z,190
2016-08-19T15:02:21.183Z,185
2016-08-19T15:03:34.176Z,185
2016-08-19T15:04:47.161Z,190
2016-08-19T15:06:00.151Z,190
2016-08-19T15:07:13.138Z,180
2016-08-19T15:08:26.135Z,170
2016-08-19T15:09:39.127Z,170
2016-08-19T15:10:52.127Z,160
2016-08-19T15:12:05.132Z,165
2016-08-19T15:13:18.130Z,160
2016-08-19T15:14:31.121Z,165
2016-08-19T15:15:44.119Z,185
2016-08-19T15:16:57.114Z,185
2016-08-19T15:18:10.107Z,190
2016-08-19T15:19:23.115Z,200
2016-08-19T15:20:36.311Z,215
2016-08-19T15:21:49.306Z,220
2016-08-19T15:23:02.294Z,205
2016-08-19T15:24:15.288Z,190
2016-08-19T15:25:28.290Z,175
2016-08-19T15:26:41.284Z,165
2016-08-19T15:27:54.524Z,160
2016-08-19T15:29:07.517Z,150
2016-08-19T15:30:20.529Z,145
2016-08-19T15:31:33.532Z,145
2016-08-19T15:32:46.524Z,155
2016-08-19T15:33:59.528Z,155
2016-08-19T15:35:12.549Z,150
2016-08-19T15:36:25.540Z,150
2016-08-19T15:37:38.540Z,150
2016-08-19T15:38:51.789Z,150
2016-08-19T15:40:04.793Z,150
2016-08-19T15:41:17.790Z,145
2016-08-19T15:42:30.785Z,145
2016-08-19T15:43:43.982Z,140
2016-08-19T15:44:57.188Z,135
2016-08-19T15:46:10.179Z,135
2016-08-19T15:47:23.162Z,135
2016-08-19T15:48:36.168Z,135
2016-08-19T15:49:49.151Z,135
2016-08-19T15:51:02.136Z,135
2016-08-19T15:52:15.733Z,130
2016-08-19T15:53:28.734Z,130
2016-08-19T15:54:41.727Z,130
2016-08-19T15:55:54.732Z,130
2016-08-19T15:57:07.722Z,130
2016-08-19T15:58:20.738Z,130
2016-08-19T15:59:33.733Z,130
2016-08-19T16:00:46.728Z,125
2016-08-19T16:01:59.722Z,120
2016-08-19T16:03:12.711Z,120
2016-08-19T16:04:25.705Z,120
2016-08-19T16:05:38.707Z,120
2016-08-19T16:06:51.713Z,125
2016-08-19T16:08:04.715Z,125
2016-08-19T16:09:17.904Z,125
2016-08-19T16:10:30.905Z,125
2016-08-19T16:11:43.953Z,125
2016-08-19T16:12:56.948Z,130
2016-08-19T16:14:10.186Z,130
2016-08-19T16:15:23.379Z,130
2016-08-19T16:16:36.374Z,135
2016-08-19T16:17:49.361Z,135
2016-08-19T16:19:02.349Z,135
2016-08-19T16:20:15.552Z,135
2016-08-19T16:21:28.558Z,130
2016-08-19T16:22:41.746Z,125
2016-08-19T16:23:54.936Z,125
2016-08-19T16:25:07.940Z,120
2016-08-19T16:26:21.133Z,120
2016-08-19T16:27:34.345Z,120
2016-08-19T16:28:47.344Z,115
2016-08-19T16:30:00.342Z,115
2016-08-19T16:31:13.347Z,110
2016-08-19T16:32:26.340Z,110
2016-08-19T16:33:39.538Z,110
2016-08-19T16:34:52.543Z,110
2016-08-19T16:36:05.735Z,105
2016-08-19T16:37:18.725Z,105
2016-08-19T16:38:31.720Z,105
2016-08-19T16:39:44.717Z,100
2016-08-19T16:40:57.713Z,90
2016-08-19T16:42:10.698Z,85
2016-08-19T16:43:23.693Z,80
2016-08-19T16:44:36.685Z,75
2016-08-19T16:45:49.680Z,75
2016-08-19T16:47:02.871Z,70
2016-08-19T16:48:15.876Z,70
2016-08-19T16:49:28.874Z,65
2016-08-19T16:50:41.886Z,60
2016-08-19T16:51:54.880Z,55
2016-08-19T16:53:08.114Z,50
2016-08-19T16:54:21.307Z,45
2016-08-19T16:55:34.298Z,40
2016-08-19T16:56:47.294Z,40